Time;durP1;ratioP1;P1;durP2;ratioP2;P2;SDS_P1;SDS_P2;PMS_P1;PMS_P2;Temp;Humidity;BMP_temperature;BMP_pressure;BME280_temperature;BME280_humidity;BME280_pressure;Samples;Min_cycle;Max_cycle;Signal;HPM_P1;HPM_P2
2021/10/18 00:00:24;;;;;;;16.30;9.80;;;;;;;8.36;72.66;100299.06;229339;1193;141680;-67
2021/10/18 00:06:00;;;;;;;18.30;10.90;;;;;;;8.33;72.81;100295.39;229853;1193;139488;-67
2021/10/18 00:11:08;;;;;;;;;;;;;;;8.32;72.75;100298.22;228843;1195;142544;-66
2021/10/18 00:16:35;;;;;;;16.80;11.00;;;;;;;8.25;73.36;100298.61;229312;1192;125120;-66
2021/10/18 00:21:40;;;;;;;17.20;10.30;;;;;;;8.29;73.36;100298.46;229688;1192;140282;-67
2021/10/18 00:26:47;;;;;;;17.40;11.80;;;;;;;8.37;73.53;100302.77;228664;1192;139430;-67
2021/10/18 00:31:55;;;;;;;24.10;11.10;;;;;;;8.39;73.75;100300.04;228536;1193;141248;-68
2021/10/18 00:37:19;;;;;;;18.50;13.40;;;;;;;8.38;74.02;100303.88;228683;1193;220421;-67
2021/10/18 00:42:29;;;;;;;25.80;12.80;;;;;;;8.33;74.23;100304.94;228323;1193;138955;-67
2021/10/18 00:47:35;;;;;;;29.80;13.10;;;;;;;8.32;74.49;100303.50;229266;1193;139701;-68
2021/10/18 00:52:51;;;;;;;21.00;11.00;;;;;;;8.30;74.94;100302.63;228779;1193;138904;-68
2021/10/18 00:57:58;;;;;;;18.20;11.40;;;;;;;8.24;75.17;100302.96;228483;1193;139963;-67
2021/10/18 01:03:04;;;;;;;19.20;13.30;;;;;;;8.20;75.37;100300.89;228671;1193;143273;-67
2021/10/18 01:08:14;;;;;;;20.60;11.40;;;;;;;8.19;75.24;100302.98;228517;1193;140994;-67
2021/10/18 01:13:19;;;;;;;22.60;13.10;;;;;;;8.21;75.86;100299.59;229099;1193;139576;-67
2021/10/18 01:18:25;;;;;;;20.70;13.20;;;;;;;8.19;75.95;100298.85;230226;1193;141337;-68
2021/10/18 01:23:31;;;;;;;23.70;13.60;;;;;;;8.16;76.31;100300.45;229019;1192;138971;-67
2021/10/18 01:28:39;;;;;;;17.00;11.60;;;;;;;8.20;76.02;100298.65;229178;1192;140308;-67
2021/10/18 01:33:56;;;;;;;;;;;;;;;;;;;;;
2021/10/18 01:39:04;;;;;;;22.70;13.70;;;;;;;8.24;76.57;100285.58;230479;1192;138672;-68
2021/10/18 01:44:08;;;;;;;15.50;11.50;;;;;;;8.26;76.65;100290.17;231021;1193;140826;-68
2021/10/18 01:49:13;;;;;;;21.30;13.40;;;;;;;8.32;76.81;100292.67;231104;1192;139485;-68
2021/10/18 01:54:18;;;;;;;22.20;13.80;;;;;;;8.36;76.92;100294.81;231045;1192;140497;-67
2021/10/18 01:59:23;;;;;;;20.90;13.70;;;;;;;8.40;77.03;100296.52;231167;1192;139530;-67
2021/10/18 02:04:28;;;;;;;17.80;11.70;;;;;;;8.43;76.90;100297.09;229736;1192;139595;-67
2021/10/18 02:09:33;;;;;;;16.40;12.60;;;;;;;8.42;76.86;100291.21;230760;1192;139385;-67
2021/10/18 02:15:01;;;;;;;19.90;15.60;;;;;;;8.46;77.12;100291.05;229288;1192;139103;-67
2021/10/18 02:20:15;;;;;;;19.90;13.00;;;;;;;8.48;77.26;100293.50;230382;1192;140375;-67
2021/10/18 02:25:27;;;;;;;22.70;14.60;;;;;;;8.46;77.38;100297.91;229467;1192;138871;-66
2021/10/18 02:30:35;;;;;;;21.80;13.50;;;;;;;8.50;77.58;100300.27;229000;1193;140274;-66
2021/10/18 02:35:41;;;;;;;24.70;15.30;;;;;;;8.54;77.57;100299.13;229445;1193;139963;-66
2021/10/18 02:40:49;;;;;;;21.90;16.10;;;;;;;8.52;77.71;100304.16;229137;1193;139762;-67
2021/10/18 02:46:01;;;;;;;27.90;17.40;;;;;;;8.50;77.48;100311.23;229024;1192;139056;-68
2021/10/18 02:51:17;;;;;;;22.80;16.10;;;;;;;8.52;77.70;100309.56;229320;1192;139701;-67
2021/10/18 02:56:48;;;;;;;;;;;;;;;;;;;;;
2021/10/18 03:01:55;;;;;;;25.70;15.80;;;;;;;8.59;78.13;100308.33;229406;1193;140088;-67
2021/10/18 03:07:16;;;;;;;24.50;15.90;;;;;;;8.56;78.28;100313.17;229659;1193;139063;-67
2021/10/18 03:12:41;;;;;;;31.80;19.60;;;;;;;8.57;78.00;100314.96;229085;1192;140642;-67
2021/10/18 03:17:55;;;;;;;23.50;17.00;;;;;;;8.57;78.22;100317.30;230157;1192;139311;-67
2021/10/18 03:22:59;;;;;;;28.30;18.20;;;;;;;8.57;78.37;100322.38;229278;1193;139244;-68
2021/10/18 03:28:13;;;;;;;32.10;19.50;;;;;;;8.59;78.51;100317.20;229625;1192;139665;-67
2021/10/18 03:33:39;;;;;;;32.50;19.60;;;;;;;8.66;78.44;100322.27;229509;1192;140391;-68
2021/10/18 03:38:43;;;;;;;31.30;18.30;;;;;;;8.68;78.54;100323.04;229332;1193;141641;-68
2021/10/18 03:43:50;;;;;;;30.60;19.20;;;;;;;8.65;78.55;100328.36;230114;1192;139179;-68
2021/10/18 03:48:54;;;;;;;33.90;17.90;;;;;;;8.59;78.49;100332.62;230577;1192;140837;-68
2021/10/18 03:53:59;;;;;;;34.70;18.40;;;;;;;8.65;78.77;100335.44;230447;1193;140424;-68
2021/10/18 03:59:03;;;;;;;29.40;17.70;;;;;;;8.72;78.79;100340.90;230954;1192;140113;-68
2021/10/18 04:04:13;;;;;;;27.90;18.80;;;;;;;8.81;78.87;100343.42;228580;1193;139813;-68
2021/10/18 04:09:19;;;;;;;28.30;18.90;;;;;;;8.87;78.95;100345.20;230019;1192;140606;-68
2021/10/18 04:14:23;;;;;;;27.90;17.10;;;;;;;8.90;78.88;100350.26;229141;1192;139270;-67
2021/10/18 04:19:56;;;;;;;;;;;;;;;;;;;;;
2021/10/18 04:25:08;;;;;;;24.10;17.90;;;;;;;8.88;78.59;100353.10;230688;1192;139088;-68
2021/10/18 04:30:16;;;;;;;25.50;18.10;;;;;;;8.83;78.77;100356.19;229219;1192;139438;-67
2021/10/18 04:35:26;;;;;;;28.20;20.10;;;;;;;8.87;78.99;100359.06;229409;1191;142517;-68
2021/10/18 04:40:37;;;;;;;25.70;16.90;;;;;;;8.94;79.11;100364.93;230164;1191;139833;-68
2021/10/18 04:45:41;;;;;;;25.10;17.60;;;;;;;8.99;79.11;100370.58;229675;1192;138913;-68
2021/10/18 04:50:51;;;;;;;28.90;16.80;;;;;;;9.04;79.08;100376.74;229266;1191;142888;-69
2021/10/18 04:55:56;;;;;;;31.60;19.50;;;;;;;9.06;79.25;100383.66;229423;1192;142685;-67
2021/10/18 05:01:21;;;;;;;29.40;16.50;;;;;;;9.05;79.20;100391.59;229871;1192;140101;-68
2021/10/18 05:06:28;;;;;;;26.80;16.90;;;;;;;9.09;79.22;100396.54;229649;1193;140887;-68
2021/10/18 05:11:32;;;;;;;23.40;17.60;;;;;;;9.06;79.21;100406.44;229924;1192;139650;-68
2021/10/18 05:16:39;;;;;;;24.00;16.10;;;;;;;9.04;79.34;100409.96;230875;1183;139770;-67
2021/10/18 05:21:44;;;;;;;23.80;17.30;;;;;;;9.06;79.25;100412.66;230622;1191;139839;-68
2021/10/18 05:26:49;;;;;;;29.40;17.90;;;;;;;9.08;79.35;100415.23;230570;1191;143901;-69
2021/10/18 05:31:54;;;;;;;20.30;15.20;;;;;;;9.10;79.39;100422.98;230297;1191;138930;-68
2021/10/18 05:36:59;;;;;;;19.80;13.00;;;;;;;9.16;79.32;100431.30;231380;1191;140057;-68
2021/10/18 05:42:03;;;;;;;24.80;15.60;;;;;;;9.24;79.30;100441.53;230854;1192;139689;-68
2021/10/18 05:47:12;;;;;;;24.10;15.50;;;;;;;9.26;79.49;100447.91;231247;1191;139132;-68
2021/10/18 05:52:18;;;;;;;20.60;13.30;;;;;;;9.31;79.27;100460.40;231299;1191;140769;-68
2021/10/18 05:57:35;;;;;;;19.00;15.30;;;;;;;9.37;79.25;100464.92;231372;1191;139994;-68
2021/10/18 06:02:40;;;;;;;23.60;15.20;;;;;;;9.41;79.17;100468.39;231413;1191;140078;-68
2021/10/18 06:07:45;;;;;;;19.10;14.30;;;;;;;9.41;79.16;100472.33;230121;1192;141072;-67
2021/10/18 06:12:57;;;;;;;25.10;14.40;;;;;;;9.41;79.02;100478.02;230968;1191;139339;-68
2021/10/18 06:18:15;;;;;;;22.10;15.40;;;;;;;9.46;79.24;100486.52;230983;1191;139803;-68
2021/10/18 06:23:25;;;;;;;18.40;12.30;;;;;;;9.58;79.35;100497.61;229575;1191;139496;-67
2021/10/18 06:28:29;;;;;;;20.50;13.70;;;;;;;9.66;79.12;100498.62;229871;1192;140442;-68
2021/10/18 06:33:33;;;;;;;24.20;15.70;;;;;;;9.72;79.30;100502.45;229571;1191;141622;-69
2021/10/18 06:38:38;;;;;;;16.20;10.90;;;;;;;9.77;79.36;100501.08;229677;1192;139992;-67
2021/10/18 06:43:45;;;;;;;22.60;13.90;;;;;;;9.88;79.29;100507.09;229268;1192;141614;-68
2021/10/18 06:48:49;;;;;;;22.90;12.80;;;;;;;9.87;79.20;100515.98;229278;1192;140098;-67
2021/10/18 06:53:56;;;;;;;21.10;13.50;;;;;;;9.89;79.16;100516.30;230333;1192;139818;-67
2021/10/18 06:59:01;;;;;;;17.90;13.60;;;;;;;9.99;79.34;100522.00;229374;1192;139883;-68
2021/10/18 07:04:18;;;;;;;;;;;;;;;;;;;;;
2021/10/18 07:10:02;;;;;;;;;;;;;;;;;;;;;
2021/10/18 07:15:35;;;;;;;19.70;13.60;;;;;;;10.12;79.03;100541.27;230220;1190;139978;-68
2021/10/18 07:20:38;;;;;;;20.30;13.50;;;;;;;10.21;79.17;100546.72;229664;1190;141544;-66
2021/10/18 07:25:45;;;;;;;14.80;12.50;;;;;;;10.26;79.31;100550.06;229471;1190;139676;-68
2021/10/18 07:30:53;;;;;;;20.40;12.40;;;;;;;10.30;79.22;100552.09;229878;1191;140783;-68
2021/10/18 07:36:06;;;;;;;;;;;;;;;10.38;79.02;100547.21;229432;1192;140485;-67
2021/10/18 07:41:15;;;;;;;18.00;11.90;;;;;;;10.43;79.17;100546.89;230378;1192;126979;-68
2021/10/18 07:46:20;;;;;;;;;;;;;;;10.50;78.99;100556.16;229990;1191;140169;-67
2021/10/18 07:51:26;;;;;;;20.00;15.00;;;;;;;10.55;78.97;100562.33;232090;1191;125722;-67
2021/10/18 07:56:44;;;;;;;;;;;;;;;;;;;;;
2021/10/18 08:02:21;;;;;;;19.70;12.70;;;;;;;10.75;78.80;100571.46;231395;1191;141356;-68
2021/10/18 08:07:28;;;;;;;;;;;;;;;10.80;78.41;100573.04;230607;1191;140220;-69
2021/10/18 08:12:37;;;;;;;17.40;13.30;;;;;;;10.84;78.49;100578.71;230832;1192;126498;-68
2021/10/18 08:17:41;;;;;;;18.40;12.50;;;;;;;10.93;78.53;100585.88;229816;1192;140477;-68
2021/10/18 08:22:47;;;;;;;16.40;11.90;;;;;;;11.01;78.36;100594.02;230129;1192;152984;-66
2021/10/18 08:27:52;;;;;;;19.80;12.00;;;;;;;11.10;78.25;100597.36;230443;1192;140377;-66
2021/10/18 08:32:57;;;;;;;19.10;12.40;;;;;;;11.16;78.00;100595.23;229543;1190;139792;-67
2021/10/18 08:49:15;;;;;;;19.70;10.70;;;;;;;11.52;77.83;100589.66;229977;1191;139982;-66
2021/10/18 08:54:24;;;;;;;40.30;16.20;;;;;;;11.64;77.65;100596.55;229231;1192;139407;-66
2021/10/18 08:59:32;;;;;;;17.00;10.30;;;;;;;11.77;77.29;100599.33;229102;1192;139420;-67
2021/10/18 09:04:42;;;;;;;15.80;12.00;;;;;;;11.84;77.02;100598.37;229557;1192;140752;-68
2021/10/18 09:09:54;;;;;;;17.30;11.40;;;;;;;11.89;76.79;100597.29;230236;1192;141078;-68
2021/10/18 09:15:23;;;;;;;16.40;12.10;;;;;;;11.96;76.78;100603.16;229062;1192;141061;-67
2021/10/18 09:20:36;;;;;;;17.30;9.10;;;;;;;12.04;76.68;100600.56;228995;1192;139493;-68
2021/10/18 09:25:45;;;;;;;16.90;10.30;;;;;;;12.14;76.17;100601.64;229897;1192;139568;-68
2021/10/18 09:30:50;;;;;;;15.60;11.30;;;;;;;12.23;76.15;100601.73;229446;1192;142770;-67
2021/10/18 09:36:16;;;;;;;;;;;;;;;;;;;;;
2021/10/18 09:41:30;;;;;;;17.30;11.40;;;;;;;12.42;75.65;100604.38;229361;1192;162373;-68
2021/10/18 09:46:46;;;;;;;13.70;9.40;;;;;;;12.56;75.66;100606.86;229380;1192;140148;-69
2021/10/18 10:53:03;;;;;;;9.60;6.30;;;;;;;12.97;73.18;100620.10;229716;1192;139230;-69
2021/10/18 10:58:49;;;;;;;9.90;6.40;;;;;;;12.85;73.32;100623.36;229402;1190;140105;-68
2021/10/18 11:03:54;;;;;;;7.60;5.40;;;;;;;12.86;73.29;100623.23;230086;1192;138996;-68
2021/10/18 11:08:59;;;;;;;11.00;6.70;;;;;;;12.84;73.26;100621.91;229417;1190;140269;-66
2021/10/18 11:14:03;;;;;;;9.30;5.60;;;;;;;12.81;73.21;100621.41;229087;1192;140540;-67
2021/10/18 11:19:12;;;;;;;6.90;5.70;;;;;;;12.70;73.30;100625.73;230682;1192;139684;-68
2021/10/18 11:24:23;;;;;;;11.80;6.70;;;;;;;12.65;73.41;100629.21;229295;1192;139300;-69
2021/10/18 11:29:32;;;;;;;8.40;6.10;;;;;;;12.66;73.61;100624.42;229634;1192;140115;-68
2021/10/18 11:34:40;;;;;;;9.90;6.20;;;;;;;12.58;73.41;100622.97;230644;1191;140644;-68
2021/10/18 11:39:45;;;;;;;6.20;5.60;;;;;;;12.44;73.59;100627.03;229888;1191;139017;-68
2021/10/18 11:44:57;;;;;;;11.40;7.20;;;;;;;12.28;73.68;100629.42;231208;1191;140253;-67
2021/10/18 11:50:28;;;;;;;10.30;7.30;;;;;;;12.29;73.81;100634.19;230159;1191;140745;-68
2021/10/18 11:55:36;;;;;;;9.10;6.20;;;;;;;12.29;73.88;100629.21;231431;1191;140968;-68
2021/10/18 12:00:41;;;;;;;11.40;7.00;;;;;;;12.27;73.74;100622.60;231194;1192;140374;-68
2021/10/18 12:05:50;;;;;;;13.70;8.60;;;;;;;12.29;73.84;100617.41;230465;1191;139763;-68
2021/10/18 12:10:55;;;;;;;13.50;8.80;;;;;;;12.29;73.85;100613.45;230563;1190;139770;-69
2021/10/18 12:21:19;;;;;;;15.90;9.90;;;;;;;12.19;74.17;100611.99;229076;1190;140493;-68
2021/10/18 12:26:41;;;;;;;;;;;;;;;;;;;;;
2021/10/18 12:32:03;;;;;;;;;;;;;;;;;;;;;
2021/10/18 12:37:09;;;;;;;17.30;12.70;;;;;;;12.41;74.49;100615.09;228925;1193;140933;-68
2021/10/18 12:42:26;;;;;;;;;;;;;;;12.38;74.59;100616.48;229671;1192;141099;-66
2021/10/18 12:47:42;;;;;;;16.10;9.90;;;;;;;12.29;74.63;100621.27;230320;1191;126727;-68
2021/10/18 12:53:47;;;;;;;;;;;;;;;;;;;;;
2021/10/18 12:59:31;;;;;;;23.70;13.40;;;;;;;12.20;74.43;100628.88;228711;1190;141758;-68
2021/10/18 13:04:36;;;;;;;21.70;12.70;;;;;;;12.10;74.30;100630.63;228903;1190;141361;-68
2021/10/18 13:09:41;;;;;;;17.50;11.50;;;;;;;11.99;74.50;100634.02;229458;1190;139245;-67
2021/10/18 13:14:49;;;;;;;17.50;12.60;;;;;;;11.89;74.45;100638.23;229146;1192;140330;-68
2021/10/18 13:20:07;;;;;;;26.10;13.00;;;;;;;11.82;74.46;100636.94;229549;1192;139704;-68
2021/10/18 13:25:21;;;;;;;21.90;13.90;;;;;;;11.72;74.60;100634.63;228937;1190;142045;-67
2021/10/18 13:30:27;;;;;;;23.70;16.00;;;;;;;11.62;74.76;100629.98;229210;1192;141807;-68
2021/10/18 13:35:32;;;;;;;22.00;16.20;;;;;;;11.45;74.72;100626.52;231240;1192;140729;-70
2021/10/18 13:40:40;;;;;;;28.90;18.00;;;;;;;11.32;75.29;100636.20;229584;1191;140056;-67
2021/10/18 13:45:46;;;;;;;27.00;17.80;;;;;;;11.26;75.19;100642.13;229854;1190;140354;-68
2021/10/18 13:50:51;;;;;;;24.90;16.60;;;;;;;11.22;75.57;100644.29;231239;1192;139940;-67
2021/10/18 13:55:58;;;;;;;26.80;16.80;;;;;;;11.21;75.63;100640.64;231267;1191;141476;-67
2021/10/18 14:01:06;;;;;;;;;;;;;;;11.26;75.78;100643.41;231188;1191;141235;-67
2021/10/18 14:06:12;;;;;;;28.00;19.00;;;;;;;11.19;75.74;100646.15;231964;1191;125926;-68
2021/10/18 14:11:25;;;;;;;34.20;19.00;;;;;;;11.11;76.01;100648.21;230005;1191;140554;-67
2021/10/18 14:16:30;;;;;;;35.30;19.90;;;;;;;11.14;76.40;100644.78;230577;1191;140100;-68
2021/10/18 14:21:44;;;;;;;30.60;20.40;;;;;;;11.15;76.20;100639.45;230662;1191;140828;-68
2021/10/18 14:27:15;;;;;;;29.40;19.90;;;;;;;11.12;76.11;100631.58;230216;1192;141573;-68
2021/10/18 14:32:33;;;;;;;29.20;19.70;;;;;;;11.11;76.24;100626.45;228933;1191;141104;-68
2021/10/18 14:37:44;;;;;;;39.60;22.10;;;;;;;11.10;76.57;100631.99;228610;1192;141011;-68
2021/10/18 14:43:06;;;;;;;34.70;22.40;;;;;;;11.13;76.78;100638.76;229111;1191;139810;-68
2021/10/18 14:48:11;;;;;;;39.20;25.10;;;;;;;11.11;76.59;100641.52;230058;1192;140545;-70
2021/10/18 14:53:29;;;;;;;43.40;25.60;;;;;;;11.04;76.76;100647.20;229541;1192;140674;-67
2021/10/18 14:58:36;;;;;;;;;;;;;;;10.97;76.63;100656.37;230238;1191;140430;-68
2021/10/18 15:03:44;;;;;;;50.50;28.90;;;;;;;10.95;76.79;100652.11;230286;1191;127739;-68
2021/10/18 15:08:56;;;;;;;48.00;28.20;;;;;;;10.98;76.89;100650.45;229900;1191;139291;-68
2021/10/18 15:14:03;;;;;;;47.30;29.10;;;;;;;10.96;76.96;100636.55;230064;1191;140627;-68
2021/10/18 15:19:14;;;;;;;51.40;32.20;;;;;;;10.93;77.10;100627.91;229386;1192;140618;-70
2021/10/18 15:24:36;;;;;;;49.00;29.80;;;;;;;10.92;77.04;100628.56;230287;1192;139757;-69
2021/10/18 15:29:44;;;;;;;48.90;31.00;;;;;;;10.90;77.08;100622.67;229265;1191;140587;-69
2021/10/18 15:34:51;;;;;;;53.10;30.00;;;;;;;10.84;77.09;100618.27;229610;1192;140232;-68
2021/10/18 15:40:10;;;;;;;;;;;;;;;;;;;;;
2021/10/18 15:45:17;;;;;;;49.70;29.60;;;;;;;10.74;77.08;100633.75;230462;1191;140625;-68
2021/10/18 15:50:45;;;;;;;51.90;28.50;;;;;;;10.71;77.35;100642.27;230634;1191;139894;-68
2021/10/18 15:55:51;;;;;;;;;;;;;;;10.68;77.46;100647.42;231323;1192;139888;-68
2021/10/18 16:00:55;;;;;;;50.80;31.40;;;;;;;10.64;77.47;100650.52;231971;1191;126436;-68
2021/10/18 16:06:09;;;;;;;53.00;30.50;;;;;;;10.64;77.52;100652.65;231119;1191;140710;-68
2021/10/18 16:11:15;;;;;;;65.10;33.80;;;;;;;10.67;77.83;100644.15;231252;1191;142270;-69
2021/10/18 16:16:20;;;;;;;47.90;30.60;;;;;;;10.71;77.61;100648.20;230870;1191;141803;-68
2021/10/18 16:21:57;;;;;;;52.40;30.80;;;;;;;10.71;77.63;100656.46;229887;1191;142062;-69
2021/10/18 16:27:03;;;;;;;48.60;31.50;;;;;;;10.69;77.74;100655.77;230853;1191;140302;-70
2021/10/18 16:32:07;;;;;;;37.50;24.70;;;;;;;10.64;77.68;100669.02;230222;1192;140255;-68
2021/10/18 16:37:28;;;;;;;43.20;28.20;;;;;;;10.56;77.76;100670.97;228930;1192;140268;-68
2021/10/18 16:42:37;;;;;;;50.50;30.90;;;;;;;10.57;77.80;100674.54;229857;1191;141127;-68
2021/10/18 16:47:46;;;;;;;42.00;25.50;;;;;;;10.58;78.02;100677.69;229898;1191;139513;-68
2021/10/18 16:52:53;;;;;;;45.60;27.90;;;;;;;10.56;78.09;100677.38;229855;1192;139566;-68
2021/10/18 16:57:57;;;;;;;46.60;29.80;;;;;;;10.57;78.24;100677.95;229673;1192;140784;-69
2021/10/18 17:03:06;;;;;;;45.00;30.90;;;;;;;10.49;78.20;100681.28;229063;1193;139872;-68
2021/10/18 17:08:14;;;;;;;43.90;27.00;;;;;;;10.40;78.29;100681.98;228955;1191;160602;-70
2021/10/18 17:13:23;;;;;;;42.10;30.70;;;;;;;10.40;78.39;100681.53;229192;1192;141859;-69
2021/10/18 17:18:28;;;;;;;37.30;24.90;;;;;;;10.38;78.46;100681.23;228985;1192;142113;-67
2021/10/18 17:23:40;;;;;;;40.60;26.00;;;;;;;10.31;78.47;100682.27;229950;1191;140623;-68
2021/10/18 17:29:08;;;;;;;44.60;29.70;;;;;;;10.25;78.62;100680.07;229704;1192;140545;-69
2021/10/18 17:34:14;;;;;;;38.20;26.60;;;;;;;10.22;78.84;100682.20;228993;1191;139740;-69
2021/10/18 17:39:18;;;;;;;42.30;26.80;;;;;;;10.19;78.87;100689.27;229797;1191;139982;-69
2021/10/18 17:44:27;;;;;;;43.70;27.80;;;;;;;10.17;78.88;100685.80;229373;1192;140342;-69
2021/10/18 17:49:33;;;;;;;40.00;27.90;;;;;;;10.15;79.15;100676.44;230282;1191;140608;-67
2021/10/18 17:54:45;;;;;;;44.30;27.20;;;;;;;10.12;79.11;100682.64;231215;1191;139121;-67
2021/10/18 18:00:00;;;;;;;41.00;26.10;;;;;;;10.12;79.08;100684.23;231280;1191;140075;-68
2021/10/18 18:05:14;;;;;;;33.10;21.20;;;;;;;10.17;79.20;100685.58;230918;1191;139695;-67
2021/10/18 18:10:23;;;;;;;40.60;25.80;;;;;;;10.16;79.17;100688.95;229519;1192;141270;-66
2021/10/18 18:15:28;;;;;;;41.70;28.50;;;;;;;10.21;79.25;100692.48;230547;1191;141274;-67
2021/10/18 18:20:34;;;;;;;36.40;26.80;;;;;;;10.25;79.38;100694.77;230483;1192;140275;-71
2021/10/18 18:25:39;;;;;;;43.90;27.00;;;;;;;10.21;79.34;100695.73;229245;1192;141074;-70
2021/10/18 18:30:44;;;;;;;38.80;24.30;;;;;;;10.18;79.40;100712.48;229653;1191;140552;-70
2021/10/18 18:35:58;;;;;;;37.60;23.90;;;;;;;10.12;79.16;100717.10;229507;1191;139779;-69
2021/10/18 18:41:10;;;;;;;44.40;27.90;;;;;;;10.10;79.47;100717.34;229833;1191;142822;-67
2021/10/18 18:46:36;;;;;;;37.90;23.80;;;;;;;10.14;79.73;100723.79;230457;1191;140250;-70
2021/10/18 18:52:07;;;;;;;40.30;25.20;;;;;;;10.08;79.47;100716.68;228753;1192;139102;-67
2021/10/18 18:57:24;;;;;;;34.40;22.90;;;;;;;10.04;79.63;100718.91;228899;1192;141922;-68
2021/10/18 19:02:32;;;;;;;33.00;23.60;;;;;;;9.99;79.57;100715.05;229562;1192;139952;-69
2021/10/18 19:07:40;;;;;;;33.10;23.50;;;;;;;9.97;79.76;100717.84;229341;1192;139988;-67
2021/10/18 19:12:53;;;;;;;32.00;21.70;;;;;;;9.98;79.99;100712.55;229037;1192;139526;-68
2021/10/18 19:18:14;;;;;;;28.30;21.00;;;;;;;9.94;79.70;100714.97;229108;1191;138983;-68
2021/10/18 19:23:21;;;;;;;33.90;23.20;;;;;;;9.89;79.80;100712.84;229610;1191;139360;-66
2021/10/18 19:28:27;;;;;;;29.60;21.60;;;;;;;9.84;80.08;100714.77;229736;1192;140735;-66
2021/10/18 19:33:38;;;;;;;29.10;20.50;;;;;;;9.84;79.97;100707.44;229659;1191;139966;-67
2021/10/18 19:38:45;;;;;;;40.80;21.80;;;;;;;9.81;80.04;100703.38;229810;1191;141272;-67
2021/10/18 19:43:54;;;;;;;29.20;21.60;;;;;;;9.83;80.21;100706.16;230602;1191;140409;-67
2021/10/18 19:49:04;;;;;;;26.80;20.20;;;;;;;9.81;80.14;100699.00;229767;1191;139852;-68
2021/10/18 19:54:40;;;;;;;32.20;22.30;;;;;;;9.79;80.33;100700.10;229929;1191;139477;-68
2021/10/18 19:59:58;;;;;;;34.70;22.10;;;;;;;9.85;80.49;100700.84;231020;1190;141158;-68
2021/10/18 20:05:05;;;;;;;28.80;21.40;;;;;;;9.88;80.33;100698.21;231122;1190;141436;-70
2021/10/18 20:10:14;;;;;;;32.50;22.20;;;;;;;9.93;80.20;100701.86;231382;1190;140080;-70
2021/10/18 20:15:22;;;;;;;34.30;22.00;;;;;;;9.88;80.16;100701.20;231203;1191;140501;-70
2021/10/18 20:20:28;;;;;;;29.80;19.20;;;;;;;9.88;80.20;100701.25;229355;1190;142622;-68
2021/10/18 20:25:39;;;;;;;27.30;21.00;;;;;;;9.90;80.19;100699.94;230268;1190;142169;-68
2021/10/18 20:30:47;;;;;;;32.50;19.30;;;;;;;9.90;80.41;100705.79;229300;1190;141124;-68
2021/10/18 20:35:53;;;;;;;32.60;20.30;;;;;;;9.95;80.48;100715.26;230165;1190;142479;-68
2021/10/18 20:40:57;;;;;;;33.20;22.00;;;;;;;10.00;80.38;100722.67;229762;1190;141587;-68
2021/10/18 20:46:02;;;;;;;36.60;21.00;;;;;;;10.00;80.51;100726.23;230105;1190;141082;-68
2021/10/18 20:51:09;;;;;;;27.80;19.80;;;;;;;10.02;80.49;100724.23;230455;1190;139672;-67
2021/10/18 20:56:24;;;;;;;29.40;21.10;;;;;;;10.01;80.09;100720.63;229833;1190;140630;-67
2021/10/18 21:02:00;;;;;;;;;;;;;;;;;;;;;
2021/10/18 21:07:28;;;;;;;25.30;18.00;;;;;;;9.81;80.20;100729.35;229209;1190;139423;-67
2021/10/18 21:12:37;;;;;;;25.80;16.50;;;;;;;9.82;80.41;100737.58;228634;1190;140237;-70
2021/10/18 21:17:46;;;;;;;18.60;13.90;;;;;;;9.81;80.54;100735.94;228777;1190;139269;-68
2021/10/18 21:22:58;;;;;;;21.30;14.80;;;;;;;9.80;80.71;100728.78;228858;1187;138870;-70
2021/10/18 21:28:03;;;;;;;23.80;16.10;;;;;;;9.83;80.58;100724.60;228760;1190;141477;-68
2021/10/18 21:33:07;;;;;;;15.30;12.20;;;;;;;9.81;80.73;100717.97;229406;1192;139648;-68
2021/10/18 21:38:14;;;;;;;25.90;16.00;;;;;;;9.78;80.73;100722.81;229905;1191;139101;-68
2021/10/18 21:43:40;;;;;;;22.50;15.80;;;;;;;9.84;80.84;100731.77;229248;1191;141495;-69
2021/10/18 21:49:10;;;;;;;18.90;14.20;;;;;;;9.83;80.70;100727.95;229788;1192;140251;-69
2021/10/18 21:54:16;;;;;;;22.00;13.60;;;;;;;9.83;80.87;100727.63;229952;1190;139979;-69
2021/10/18 21:59:21;;;;;;;23.90;16.20;;;;;;;9.80;80.56;100726.29;229642;1190;139741;-67
2021/10/18 22:04:45;;;;;;;22.40;17.50;;;;;;;9.76;80.84;100725.35;229162;1191;139081;-69
2021/10/18 22:09:56;;;;;;;26.50;15.50;;;;;;;9.70;80.67;100728.38;229107;1190;140221;-68
2021/10/18 22:15:04;;;;;;;22.00;18.20;;;;;;;9.76;80.98;100729.25;231181;1190;140715;-68
2021/10/18 22:20:12;;;;;;;27.20;17.40;;;;;;;9.83;81.03;100727.30;231257;1190;139523;-69
2021/10/18 22:25:19;;;;;;;24.80;16.50;;;;;;;9.83;80.99;100731.60;230367;1190;139973;-69
2021/10/18 22:30:38;;;;;;;21.80;15.10;;;;;;;9.86;80.81;100734.55;228713;1191;139780;-68
2021/10/18 22:35:46;;;;;;;29.60;18.00;;;;;;;9.93;81.09;100736.86;230137;1191;140653;-69
2021/10/18 22:40:51;;;;;;;27.20;17.20;;;;;;;9.93;81.00;100731.56;229225;1190;139160;-68
2021/10/18 22:46:20;;;;;;;27.70;17.50;;;;;;;9.95;80.72;100733.25;229071;1190;141264;-70
2021/10/18 22:51:35;;;;;;;24.20;16.70;;;;;;;9.97;80.82;100737.64;230299;1191;140420;-69
2021/10/18 22:56:45;;;;;;;23.70;16.80;;;;;;;9.97;80.95;100736.60;229390;1192;139741;-68
2021/10/18 23:01:55;;;;;;;24.00;15.70;;;;;;;9.94;80.85;100733.45;229826;1190;141076;-68
2021/10/18 23:07:00;;;;;;;29.50;15.80;;;;;;;9.93;80.74;100733.20;229532;1190;141997;-69
2021/10/18 23:12:07;;;;;;;26.80;16.00;;;;;;;9.95;80.96;100739.73;229295;1191;141181;-68
2021/10/18 23:17:35;;;;;;;21.40;14.40;;;;;;;9.93;81.01;100737.63;229152;1190;139200;-67
2021/10/18 23:22:42;;;;;;;26.70;16.60;;;;;;;9.96;80.93;100743.37;229537;1190;140319;-68
2021/10/18 23:28:12;;;;;;;30.60;16.50;;;;;;;9.97;81.03;100748.65;229920;1192;140579;-69
2021/10/18 23:33:21;;;;;;;21.90;15.30;;;;;;;9.98;81.06;100748.24;229245;1192;141198;-67
2021/10/18 23:38:31;;;;;;;27.90;18.30;;;;;;;9.96;80.80;100751.68;230026;1191;140619;-68
2021/10/18 23:43:42;;;;;;;22.50;15.60;;;;;;;9.93;80.83;100755.79;228790;1193;139520;-70
2021/10/18 23:48:49;;;;;;;22.40;14.60;;;;;;;9.88;80.71;100765.90;229600;1190;139195;-68
2021/10/18 23:54:14;;;;;;;21.70;15.80;;;;;;;9.79;80.54;100767.95;230632;1190;140367;-68
2021/10/18 23:59:28;;;;;;;22.60;16.70;;;;;;;9.74;80.72;100766.65;230656;1192;139530;-67
